createdAt,value
2023-03-29T00:01:35.546Z,1.80
2023-03-29T00:04:04.401Z,2.17
2023-03-29T00:06:32.336Z,2.20
2023-03-29T00:08:59.285Z,1.77
2023-03-29T00:11:26.112Z,2.47
2023-03-29T00:13:52.602Z,2.13
2023-03-29T00:16:19.514Z,2.10
2023-03-29T00:18:45.950Z,2.20
2023-03-29T00:21:12.417Z,2.23
2023-03-29T00:23:38.882Z,1.90
2023-03-29T00:26:08.507Z,2.13
2023-03-29T00:28:35.223Z,2.10
2023-03-29T00:31:08.851Z,1.97
2023-03-29T00:33:35.801Z,2.03
2023-03-29T00:36:02.362Z,2.00
2023-03-29T00:38:29.022Z,2.33
2023-03-29T00:40:55.701Z,2.40
2023-03-29T00:43:22.392Z,2.00
2023-03-29T00:45:48.894Z,1.83
2023-03-29T00:48:21.293Z,2.20
2023-03-29T00:50:54.000Z,2.30
2023-03-29T00:53:27.339Z,1.87
2023-03-29T00:55:59.626Z,2.20
2023-03-29T00:58:32.749Z,2.20
2023-03-29T01:01:02.634Z,2.53
2023-03-29T01:03:33.113Z,2.20
2023-03-29T01:06:01.778Z,2.07
2023-03-29T01:08:40.651Z,2.70
2023-03-29T01:11:26.618Z,2.23
2023-03-29T01:13:58.978Z,2.43
2023-03-29T01:16:28.714Z,2.90
2023-03-29T01:18:58.766Z,2.70
2023-03-29T01:21:29.351Z,2.33
2023-03-29T01:24:07.236Z,2.87
2023-03-29T01:26:53.740Z,2.37
2023-03-29T01:29:26.451Z,2.60
2023-03-29T01:32:13.282Z,2.50
2023-03-29T01:34:42.944Z,2.83
2023-03-29T01:37:24.791Z,2.87
2023-03-29T01:39:52.319Z,2.30
2023-03-29T01:42:41.656Z,2.63
2023-03-29T01:45:17.044Z,2.63
2023-03-29T01:47:51.655Z,2.97
2023-03-29T01:50:19.495Z,3.40
2023-03-29T01:52:53.460Z,2.70
2023-03-29T01:55:24.679Z,2.33
2023-03-29T01:57:52.254Z,3.43
2023-03-29T02:00:20.939Z,2.87
2023-03-29T02:02:48.850Z,3.23
2023-03-29T02:05:16.620Z,3.10
2023-03-29T02:07:44.761Z,2.90
2023-03-29T02:10:11.482Z,2.80
2023-03-29T02:12:38.172Z,3.50
2023-03-29T02:15:07.108Z,3.60
2023-03-29T02:17:33.623Z,2.43
2023-03-29T02:20:03.433Z,3.10
2023-03-29T02:22:42.173Z,3.33
2023-03-29T02:25:09.454Z,3.20
2023-03-29T02:27:38.088Z,3.13
2023-03-29T02:30:06.573Z,2.77
2023-03-29T02:33:02.585Z,2.90
2023-03-29T02:35:38.521Z,2.90
2023-03-29T02:38:07.781Z,3.50
2023-03-29T02:40:34.840Z,3.03
2023-03-29T02:43:02.060Z,3.03
2023-03-29T02:45:29.177Z,3.27
2023-03-29T02:47:57.454Z,3.37
2023-03-29T02:50:28.590Z,2.80
2023-03-29T02:52:59.294Z,3.50
2023-03-29T02:55:31.364Z,3.57
2023-03-29T02:57:57.955Z,3.23
2023-03-29T03:00:24.475Z,3.13
2023-03-29T03:02:52.242Z,3.03
2023-03-29T03:05:19.413Z,2.40
2023-03-29T03:07:47.087Z,3.23
2023-03-29T03:10:13.783Z,3.33
2023-03-29T03:12:40.180Z,3.60
2023-03-29T03:15:08.246Z,3.40
2023-03-29T03:17:40.163Z,3.27
2023-03-29T03:20:11.048Z,3.30
2023-03-29T03:22:38.240Z,2.97
2023-03-29T03:25:06.139Z,3.57
2023-03-29T03:27:34.053Z,2.67
2023-03-29T03:30:00.497Z,3.97
2023-03-29T03:32:27.198Z,3.20
2023-03-29T03:34:53.811Z,3.47
2023-03-29T03:37:20.318Z,3.07
2023-03-29T03:39:46.906Z,2.90
2023-03-29T03:42:13.360Z,3.33
2023-03-29T03:44:40.930Z,3.63
2023-03-29T03:47:07.878Z,3.80
2023-03-29T03:49:34.323Z,3.47
2023-03-29T03:52:00.966Z,3.10
2023-03-29T03:54:27.552Z,3.27
2023-03-29T03:56:54.278Z,3.43
2023-03-29T03:59:20.766Z,3.23
2023-03-29T04:01:47.197Z,3.13
2023-03-29T04:04:14.901Z,3.63
2023-03-29T04:06:43.680Z,4.10
2023-03-29T04:09:10.354Z,3.20
2023-03-29T04:11:38.008Z,3.70
2023-03-29T04:14:05.546Z,3.60
2023-03-29T04:16:31.934Z,3.83
2023-03-29T04:18:58.449Z,2.77
2023-03-29T04:21:24.954Z,3.83
2023-03-29T04:23:51.321Z,3.33
2023-03-29T04:26:18.088Z,3.40
2023-03-29T04:28:44.639Z,3.57
2023-03-29T04:31:12.355Z,3.33
2023-03-29T04:33:38.904Z,3.97
2023-03-29T04:36:06.112Z,3.43
2023-03-29T04:38:36.126Z,4.20
2023-03-29T04:41:04.936Z,4.13
2023-03-29T04:43:31.400Z,4.37
2023-03-29T04:45:58.496Z,3.27
2023-03-29T04:48:25.767Z,3.60
2023-03-29T04:50:54.207Z,3.83
2023-03-29T04:53:21.173Z,4.10
2023-03-29T04:55:47.860Z,3.87
2023-03-29T04:58:14.471Z,3.63
2023-03-29T05:00:41.044Z,3.43
2023-03-29T05:03:07.544Z,3.27
2023-03-29T05:05:34.066Z,3.67
2023-03-29T05:08:00.431Z,4.53
2023-03-29T05:10:27.203Z,3.50
2023-03-29T05:12:54.200Z,3.97
2023-03-29T05:15:21.359Z,3.70
2023-03-29T05:17:51.240Z,3.93
2023-03-29T05:20:17.755Z,3.57
2023-03-29T05:22:44.253Z,3.83
2023-03-29T05:25:11.870Z,3.37
2023-03-29T05:27:38.338Z,4.03
2023-03-29T05:30:04.985Z,3.97
2023-03-29T05:32:31.465Z,4.30
2023-03-29T05:34:57.867Z,3.57
2023-03-29T05:37:24.244Z,4.13
2023-03-29T05:39:50.646Z,4.03
2023-03-29T05:42:19.400Z,4.57
2023-03-29T05:44:45.886Z,4.47
2023-03-29T05:47:12.287Z,4.30
2023-03-29T05:49:38.653Z,3.77
2023-03-29T05:52:06.754Z,4.20
2023-03-29T05:54:33.420Z,4.30
2023-03-29T05:56:59.843Z,3.77
2023-03-29T05:59:28.684Z,3.70
2023-03-29T06:01:55.566Z,4.00
2023-03-29T06:04:22.339Z,3.60
2023-03-29T06:06:48.924Z,3.53
2023-03-29T06:09:15.592Z,3.97
2023-03-29T06:11:41.978Z,4.10
2023-03-29T06:14:08.444Z,4.00
2023-03-29T06:16:35.075Z,4.13
2023-03-29T06:19:01.594Z,3.87
2023-03-29T06:21:28.536Z,4.67
2023-03-29T06:23:55.095Z,3.87
2023-03-29T06:26:23.039Z,4.20
2023-03-29T06:28:51.953Z,4.20
2023-03-29T06:31:19.938Z,4.60
2023-03-29T06:33:46.986Z,4.00
2023-03-29T06:36:16.053Z,3.90
2023-03-29T06:38:43.054Z,4.60
2023-03-29T06:41:12.933Z,3.90
2023-03-29T06:43:40.520Z,4.60
2023-03-29T06:46:12.330Z,6.03
2023-03-29T06:48:39.372Z,5.33
2023-03-29T06:51:07.618Z,4.63
2023-03-29T06:53:34.657Z,4.87
2023-03-29T06:56:05.327Z,4.40
2023-03-29T06:58:31.863Z,4.63
2023-03-29T07:01:04.753Z,4.87
2023-03-29T07:03:31.626Z,5.10
2023-03-29T07:06:04.023Z,5.23
2023-03-29T07:08:31.680Z,4.13
2023-03-29T07:10:59.435Z,4.97
2023-03-29T07:13:27.695Z,5.20
2023-03-29T07:15:54.162Z,5.97
2023-03-29T07:18:21.029Z,5.33
2023-03-29T07:20:48.535Z,4.97
2023-03-29T07:23:16.700Z,5.13
2023-03-29T07:25:43.113Z,5.07
2023-03-29T07:28:09.566Z,5.37
2023-03-29T07:30:37.200Z,5.27
2023-03-29T07:33:04.472Z,6.03
2023-03-29T07:35:32.853Z,4.93
2023-03-29T07:37:59.514Z,5.80
2023-03-29T07:40:27.479Z,4.93
2023-03-29T07:42:54.933Z,6.77
2023-03-29T07:45:26.637Z,5.93
2023-03-29T07:47:56.264Z,7.03
2023-03-29T07:50:23.238Z,5.63
2023-03-29T07:52:50.129Z,6.30
2023-03-29T07:55:17.022Z,5.47
2023-03-29T07:57:44.223Z,6.43
2023-03-29T08:00:13.162Z,7.47
2023-03-29T08:02:41.112Z,6.73
2023-03-29T08:05:07.801Z,6.23
2023-03-29T08:07:34.258Z,8.00
2023-03-29T08:10:00.739Z,7.73
2023-03-29T08:12:27.329Z,9.30
2023-03-29T08:14:53.947Z,9.40
2023-03-29T08:17:20.400Z,9.80
2023-03-29T08:19:51.294Z,7.67
2023-03-29T08:22:18.542Z,10.33
2023-03-29T08:24:44.931Z,9.20
2023-03-29T08:27:11.312Z,8.27
2023-03-29T08:29:37.817Z,9.43
2023-03-29T08:32:04.457Z,9.07
2023-03-29T08:34:31.971Z,7.53
2023-03-29T08:36:59.217Z,9.60
2023-03-29T08:39:25.730Z,8.87
2023-03-29T08:42:02.639Z,11.37
2023-03-29T08:44:39.728Z,12.13
2023-03-29T08:47:09.157Z,13.50
2023-03-29T08:49:38.025Z,12.60
2023-03-29T08:52:06.491Z,11.63
2023-03-29T08:54:42.620Z,12.47
2023-03-29T08:57:29.404Z,13.47
2023-03-29T08:59:57.965Z,12.73
2023-03-29T09:02:26.243Z,11.93
2023-03-29T09:04:57.054Z,12.90
2023-03-29T09:07:25.960Z,13.37
2023-03-29T09:09:53.487Z,14.97
2023-03-29T09:12:26.823Z,13.80
2023-03-29T09:14:53.184Z,14.73
2023-03-29T09:17:28.836Z,13.47
2023-03-29T09:20:00.625Z,14.40
2023-03-29T09:22:37.605Z,14.50
2023-03-29T09:25:04.151Z,14.90
2023-03-29T09:27:36.397Z,14.60
2023-03-29T09:30:04.751Z,13.57
2023-03-29T09:32:34.552Z,12.93
2023-03-29T09:35:10.400Z,13.10
2023-03-29T09:37:39.645Z,14.60
2023-03-29T09:40:14.618Z,13.13
2023-03-29T09:42:41.637Z,13.90
2023-03-29T09:45:08.725Z,13.30
2023-03-29T09:47:47.779Z,13.93
2023-03-29T09:50:30.172Z,13.90
2023-03-29T09:52:57.247Z,14.97
2023-03-29T09:55:27.307Z,13.87
2023-03-29T09:57:54.089Z,14.13
2023-03-29T10:00:20.828Z,14.70
2023-03-29T10:02:51.322Z,14.40
2023-03-29T10:05:18.123Z,13.40
2023-03-29T10:07:50.850Z,15.20
2023-03-29T10:10:25.323Z,14.00
2023-03-29T10:12:53.988Z,13.87
2023-03-29T10:15:29.157Z,14.50
2023-03-29T10:18:00.867Z,14.07
2023-03-29T10:20:27.548Z,14.10
2023-03-29T10:22:58.413Z,13.10
2023-03-29T10:25:30.196Z,13.53
2023-03-29T10:28:17.566Z,13.07
2023-03-29T10:30:45.919Z,13.60
2023-03-29T10:33:18.324Z,13.80
2023-03-29T10:35:44.976Z,12.53
2023-03-29T10:38:14.843Z,13.77
2023-03-29T10:40:45.833Z,12.53
2023-03-29T10:43:14.647Z,13.03
2023-03-29T10:45:41.480Z,12.47
2023-03-29T10:48:15.367Z,10.90
2023-03-29T10:50:45.529Z,13.37
2023-03-29T10:53:23.949Z,11.77
2023-03-29T10:56:06.881Z,13.47
2023-03-29T10:58:42.739Z,11.27
2023-03-29T11:01:15.141Z,12.17
2023-03-29T11:03:44.789Z,11.87
2023-03-29T11:06:11.275Z,12.27
2023-03-29T11:08:56.352Z,11.70
2023-03-29T11:11:44.169Z,12.43
2023-03-29T11:14:17.187Z,11.40
2023-03-29T11:16:54.704Z,11.60
2023-03-29T11:19:29.287Z,11.43
2023-03-29T11:22:06.827Z,12.67
2023-03-29T11:24:34.888Z,11.53
2023-03-29T11:27:23.258Z,11.30
2023-03-29T11:29:58.779Z,11.73
2023-03-29T11:32:34.189Z,12.43
2023-03-29T11:35:03.629Z,10.83
2023-03-29T11:37:36.533Z,11.67
2023-03-29T11:40:27.222Z,11.37
2023-03-29T11:42:55.405Z,10.20
2023-03-29T11:46:00.963Z,11.53
2023-03-29T11:48:30.388Z,11.77
2023-03-29T11:51:17.064Z,11.23
2023-03-29T11:53:53.463Z,12.07
2023-03-29T11:56:24.673Z,11.40
2023-03-29T11:58:53.807Z,11.40
2023-03-29T12:01:37.896Z,12.63
2023-03-29T12:04:11.404Z,11.27
2023-03-29T12:06:44.600Z,11.43
2023-03-29T12:09:16.887Z,11.90
2023-03-29T12:11:54.431Z,11.93
2023-03-29T12:14:25.470Z,12.40
2023-03-29T12:17:01.026Z,11.03
2023-03-29T12:19:30.734Z,11.47
2023-03-29T12:21:57.965Z,11.30
2023-03-29T12:24:25.908Z,10.57
2023-03-29T12:27:11.771Z,11.10
2023-03-29T12:29:41.099Z,10.87
2023-03-29T12:32:26.177Z,11.07
2023-03-29T12:35:01.941Z,10.53
2023-03-29T12:37:36.062Z,9.43
2023-03-29T12:40:05.297Z,9.80
2023-03-29T12:42:31.782Z,10.57
2023-03-29T12:44:59.176Z,10.47
2023-03-29T12:47:27.740Z,11.07
2023-03-29T12:49:56.168Z,10.03
2023-03-29T12:52:33.872Z,10.23
2023-03-29T12:55:02.103Z,9.37
2023-03-29T12:57:42.434Z,9.50
2023-03-29T13:00:23.760Z,10.37
2023-03-29T13:03:00.459Z,9.47
2023-03-29T13:05:31.497Z,9.33
2023-03-29T13:07:57.985Z,9.33
2023-03-29T13:10:41.435Z,9.73
2023-03-29T13:13:11.173Z,9.37
2023-03-29T13:15:37.890Z,8.70
2023-03-29T13:18:19.622Z,8.47
2023-03-29T13:20:47.870Z,8.87
2023-03-29T13:23:17.743Z,7.77
2023-03-29T13:25:47.585Z,7.93
2023-03-29T13:28:32.778Z,8.80
2023-03-29T13:31:06.452Z,7.60
2023-03-29T13:33:58.550Z,8.20
2023-03-29T13:36:24.951Z,7.83
2023-03-29T13:38:53.411Z,7.40
2023-03-29T13:41:43.241Z,8.50
2023-03-29T13:44:22.214Z,7.83
2023-03-29T13:46:49.754Z,8.17
2023-03-29T13:49:20.885Z,8.07
2023-03-29T13:51:53.510Z,8.30
2023-03-29T13:54:36.720Z,7.53
2023-03-29T13:57:03.247Z,8.20
2023-03-29T13:59:45.259Z,7.37
2023-03-29T14:02:16.986Z,6.57
2023-03-29T14:04:46.793Z,8.37
2023-03-29T14:07:14.652Z,7.83
2023-03-29T14:09:44.042Z,7.70
2023-03-29T14:12:14.647Z,7.50
2023-03-29T14:14:57.666Z,6.83
2023-03-29T14:17:25.712Z,6.87
2023-03-29T14:19:52.189Z,6.37
2023-03-29T14:22:21.902Z,6.97
2023-03-29T14:24:51.646Z,6.33
2023-03-29T14:27:19.133Z,5.37
2023-03-29T14:29:49.705Z,6.03
2023-03-29T14:32:19.375Z,5.03
2023-03-29T14:34:50.866Z,5.63
2023-03-29T14:37:21.813Z,5.97
2023-03-29T14:39:51.389Z,6.10
2023-03-29T14:42:23.329Z,6.53
2023-03-29T14:44:50.337Z,5.77
2023-03-29T14:47:27.393Z,6.77
2023-03-29T14:49:56.149Z,6.77
2023-03-29T14:52:23.570Z,7.67
2023-03-29T14:54:54.060Z,6.10
2023-03-29T14:57:23.542Z,6.33
2023-03-29T14:59:54.801Z,6.63
2023-03-29T15:02:24.260Z,7.10
2023-03-29T15:05:03.598Z,7.53
2023-03-29T15:07:31.145Z,8.27
2023-03-29T15:09:58.602Z,9.30
2023-03-29T15:12:25.561Z,9.20
2023-03-29T15:14:52.876Z,9.30
2023-03-29T15:17:52.238Z,9.27
2023-03-29T15:20:23.381Z,9.93
2023-03-29T15:22:54.800Z,10.90
2023-03-29T15:25:21.312Z,8.80
2023-03-29T15:27:50.189Z,9.43
2023-03-29T15:30:17.741Z,8.97
2023-03-29T15:32:46.832Z,8.40
2023-03-29T15:35:25.768Z,8.33
2023-03-29T15:37:53.312Z,8.83
2023-03-29T15:40:23.578Z,8.67
2023-03-29T15:42:50.806Z,8.37
2023-03-29T15:45:18.251Z,9.17
2023-03-29T15:47:45.055Z,8.60
2023-03-29T15:50:11.556Z,8.90
2023-03-29T15:52:38.553Z,9.03
2023-03-29T15:55:06.218Z,8.27
2023-03-29T15:57:32.799Z,8.77
2023-03-29T15:59:59.346Z,8.90
2023-03-29T16:02:25.944Z,9.27
2023-03-29T16:04:53.518Z,8.53
2023-03-29T16:07:20.988Z,8.87
2023-03-29T16:09:47.475Z,8.43
2023-03-29T16:12:16.147Z,8.10
2023-03-29T16:14:43.260Z,7.40
2023-03-29T16:17:09.942Z,7.10
2023-03-29T16:19:36.426Z,7.00
2023-03-29T16:22:08.504Z,7.70
2023-03-29T16:24:36.585Z,7.27
2023-03-29T16:27:03.144Z,7.07
2023-03-29T16:29:29.848Z,6.90
2023-03-29T16:31:56.469Z,7.07
2023-03-29T16:34:22.927Z,6.03
2023-03-29T16:36:50.765Z,7.07
2023-03-29T16:39:18.317Z,6.47
2023-03-29T16:41:46.879Z,6.03
2023-03-29T16:44:15.462Z,5.63
2023-03-29T16:46:42.170Z,5.63
2023-03-29T16:49:13.971Z,6.03
2023-03-29T16:51:40.484Z,5.50
2023-03-29T16:54:07.729Z,5.80
2023-03-29T16:56:36.775Z,5.63
2023-03-29T16:59:03.743Z,5.60
2023-03-29T17:01:30.301Z,5.73
2023-03-29T17:03:57.213Z,6.77
2023-03-29T17:06:23.788Z,6.13
2023-03-29T17:08:50.584Z,5.60
2023-03-29T17:11:17.529Z,6.70
2023-03-29T17:13:44.559Z,5.33
2023-03-29T17:16:11.196Z,5.70
2023-03-29T17:18:37.925Z,6.60
2023-03-29T17:21:04.451Z,5.63
2023-03-29T17:23:30.867Z,5.60
2023-03-29T17:25:57.323Z,5.40
2023-03-29T17:28:23.798Z,4.83
2023-03-29T17:30:50.462Z,4.90
2023-03-29T17:33:19.185Z,4.90
2023-03-29T17:35:48.583Z,4.73
2023-03-29T17:38:14.989Z,4.63
2023-03-29T17:40:41.846Z,4.70
2023-03-29T17:43:08.277Z,4.60
2023-03-29T17:45:35.505Z,5.70
2023-03-29T17:48:04.091Z,5.10
2023-03-29T17:50:32.174Z,4.90
2023-03-29T17:52:58.705Z,4.80
2023-03-29T17:55:26.475Z,4.97
2023-03-29T17:57:54.434Z,4.90
2023-03-29T18:00:21.090Z,4.47
2023-03-29T18:02:47.645Z,4.57
2023-03-29T18:05:14.205Z,5.00
2023-03-29T18:07:40.707Z,4.37
2023-03-29T18:10:07.857Z,5.30
2023-03-29T18:12:34.285Z,4.27
2023-03-29T18:15:01.123Z,5.63
2023-03-29T18:17:28.613Z,4.90
2023-03-29T18:19:55.004Z,4.80
2023-03-29T18:22:21.705Z,5.50
2023-03-29T18:24:54.912Z,5.13
2023-03-29T18:27:21.689Z,6.27
2023-03-29T18:29:48.137Z,5.30
2023-03-29T18:32:15.847Z,5.87
2023-03-29T18:34:42.310Z,5.27
2023-03-29T18:37:14.600Z,6.27
2023-03-29T18:39:41.600Z,5.97
2023-03-29T18:42:09.728Z,6.10
2023-03-29T18:44:38.091Z,5.90
2023-03-29T18:47:04.666Z,5.77
2023-03-29T18:49:31.224Z,5.83
2023-03-29T18:51:57.818Z,5.50
2023-03-29T18:54:24.234Z,5.63
2023-03-29T18:56:51.638Z,5.63
2023-03-29T18:59:18.375Z,6.53
2023-03-29T19:01:45.312Z,5.80
2023-03-29T19:04:13.456Z,6.50
2023-03-29T19:06:41.740Z,6.17
2023-03-29T19:09:08.416Z,6.17
2023-03-29T19:11:36.070Z,6.10
2023-03-29T19:14:05.927Z,6.30
2023-03-29T19:16:32.496Z,6.70
2023-03-29T19:18:58.890Z,7.23
2023-03-29T19:21:25.387Z,6.80
2023-03-29T19:23:52.947Z,6.70
2023-03-29T19:26:19.563Z,7.00
2023-03-29T19:28:46.076Z,6.50
2023-03-29T19:31:12.649Z,6.37
2023-03-29T19:33:39.672Z,5.97
2023-03-29T19:36:06.638Z,6.80
2023-03-29T19:38:34.679Z,7.13
2023-03-29T19:41:02.427Z,6.80
2023-03-29T19:43:29.032Z,6.50
2023-03-29T19:45:55.482Z,6.37
2023-03-29T19:48:24.039Z,6.90
2023-03-29T19:50:51.496Z,7.20
2023-03-29T19:53:19.378Z,6.63
2023-03-29T19:55:46.028Z,7.10
2023-03-29T19:58:12.669Z,7.47
2023-03-29T20:00:39.271Z,7.27
2023-03-29T20:03:10.160Z,6.80
2023-03-29T20:05:39.346Z,6.77
2023-03-29T20:08:06.596Z,6.90
2023-03-29T20:10:34.017Z,7.30
2023-03-29T20:13:00.541Z,7.10
2023-03-29T20:15:27.021Z,6.83
2023-03-29T20:17:55.321Z,7.60
2023-03-29T20:20:24.614Z,7.67
2023-03-29T20:22:54.107Z,7.60
2023-03-29T20:25:21.260Z,7.53
2023-03-29T20:27:49.771Z,7.03
2023-03-29T20:30:17.195Z,6.97
2023-03-29T20:32:44.903Z,8.00
2023-03-29T20:35:11.716Z,7.63
2023-03-29T20:37:39.164Z,10.07
2023-03-29T20:40:06.652Z,14.07
2023-03-29T20:42:34.622Z,35.60
2023-03-29T20:45:01.428Z,65.43
2023-03-29T20:47:29.434Z,30.03
2023-03-29T20:49:56.813Z,16.13
2023-03-29T20:52:23.885Z,15.40
2023-03-29T20:54:50.660Z,8.63
2023-03-29T20:57:19.166Z,13.73
2023-03-29T20:59:46.076Z,10.67
2023-03-29T21:02:19.015Z,10.03
2023-03-29T21:04:49.836Z,10.10
2023-03-29T21:07:17.196Z,9.37
2023-03-29T21:09:43.697Z,8.20
2023-03-29T21:12:10.254Z,9.67
2023-03-29T21:14:36.753Z,8.20
2023-03-29T21:17:03.171Z,8.10
2023-03-29T21:19:29.706Z,8.50
2023-03-29T21:21:56.147Z,7.40
2023-03-29T21:24:22.686Z,7.90
2023-03-29T21:26:49.131Z,7.23
2023-03-29T21:29:15.951Z,7.07
2023-03-29T21:31:42.418Z,6.50
2023-03-29T21:34:09.042Z,7.03
2023-03-29T21:36:35.793Z,7.60
2023-03-29T21:39:02.210Z,5.67
2023-03-29T21:41:28.643Z,5.43
2023-03-29T21:43:55.269Z,5.93
2023-03-29T21:46:21.774Z,5.60
2023-03-29T21:48:48.247Z,5.90
2023-03-29T21:51:14.887Z,6.17
2023-03-29T21:53:41.522Z,6.40
2023-03-29T21:56:08.465Z,5.67
2023-03-29T21:58:34.919Z,5.97
2023-03-29T22:01:03.778Z,5.10
2023-03-29T22:03:30.848Z,4.53
2023-03-29T22:05:57.248Z,4.43
2023-03-29T22:08:26.588Z,4.40
2023-03-29T22:10:56.654Z,3.90
2023-03-29T22:13:24.279Z,3.93
2023-03-29T22:15:59.159Z,3.87
2023-03-29T22:18:28.048Z,3.60
2023-03-29T22:20:55.980Z,4.00
2023-03-29T22:23:24.938Z,3.37
2023-03-29T22:25:52.521Z,3.57
2023-03-29T22:28:22.358Z,4.47
2023-03-29T22:30:48.950Z,3.70
2023-03-29T22:33:15.928Z,3.73
2023-03-29T22:35:42.347Z,3.57
2023-03-29T22:38:10.128Z,3.27
2023-03-29T22:40:39.509Z,3.67
2023-03-29T22:43:05.914Z,2.93
2023-03-29T22:45:32.365Z,3.13
2023-03-29T22:47:58.826Z,2.87
2023-03-29T22:50:25.405Z,2.83
2023-03-29T22:52:51.860Z,3.23
2023-03-29T22:55:18.281Z,3.03
2023-03-29T22:57:44.842Z,2.87
2023-03-29T23:00:13.246Z,2.73
2023-03-29T23:02:39.906Z,2.90
2023-03-29T23:05:06.924Z,3.30
2023-03-29T23:07:36.479Z,3.43
2023-03-29T23:10:06.916Z,3.30
2023-03-29T23:12:36.203Z,2.73
2023-03-29T23:15:06.353Z,2.57
2023-03-29T23:17:32.783Z,2.97
2023-03-29T23:19:59.244Z,2.83
2023-03-29T23:22:27.680Z,2.47
2023-03-29T23:24:54.119Z,2.93
2023-03-29T23:27:20.495Z,2.80
2023-03-29T23:29:50.388Z,3.20
2023-03-29T23:32:16.879Z,2.60
2023-03-29T23:34:43.313Z,2.27
2023-03-29T23:37:09.794Z,2.10
2023-03-29T23:39:36.253Z,2.30
2023-03-29T23:42:03.482Z,2.77
2023-03-29T23:44:30.659Z,2.40
2023-03-29T23:46:57.220Z,2.40
2023-03-29T23:49:24.113Z,2.10
2023-03-29T23:51:54.689Z,2.50
2023-03-29T23:54:23.368Z,2.63
2023-03-29T23:56:50.055Z,2.50
2023-03-29T23:59:16.862Z,2.53
